createdAt,value
2023-05-02T00:00:49.741Z,3.05
2023-05-02T00:06:57.452Z,3.60
2023-05-02T00:09:24.008Z,3.50
2023-05-02T00:11:50.358Z,3.42
2023-05-02T00:14:16.714Z,3.70
2023-05-02T00:16:43.016Z,3.33
2023-05-02T00:19:09.424Z,3.92
2023-05-02T00:21:35.830Z,4.10
2023-05-02T00:24:02.188Z,4.22
2023-05-02T00:26:29.029Z,4.28
2023-05-02T00:28:55.344Z,3.85
2023-05-02T00:31:21.711Z,4.50
2023-05-02T00:33:48.133Z,4.97
2023-05-02T00:36:15.788Z,4.93
2023-05-02T00:38:42.105Z,4.43
2023-05-02T00:41:08.512Z,6.13
2023-05-02T00:43:34.997Z,6.63
2023-05-02T00:46:01.391Z,6.45
2023-05-02T00:48:30.988Z,6.22
2023-05-02T00:50:58.218Z,6.80
2023-05-02T00:53:24.663Z,6.18
2023-05-02T00:55:51.093Z,5.88
2023-05-02T00:58:19.204Z,6.40
2023-05-02T01:01:08.087Z,6.10
2023-05-02T01:04:03.604Z,5.80
2023-05-02T01:06:48.459Z,5.43
2023-05-02T01:09:20.995Z,5.20
2023-05-02T01:12:03.241Z,5.95
2023-05-02T01:14:33.073Z,7.05
2023-05-02T01:17:04.807Z,7.38
2023-05-02T01:19:36.843Z,7.03
2023-05-02T01:22:07.940Z,6.97
2023-05-02T01:24:47.836Z,7.85
2023-05-02T01:27:39.409Z,7.53
2023-05-02T01:30:08.038Z,7.07
2023-05-02T01:32:39.256Z,7.60
2023-05-02T01:35:08.493Z,7.60
2023-05-02T01:37:36.719Z,6.50
2023-05-02T01:40:05.500Z,7.32
2023-05-02T01:42:34.217Z,7.05
2023-05-02T01:45:02.840Z,7.00
2023-05-02T01:47:32.296Z,6.97
2023-05-02T01:50:01.610Z,7.00
2023-05-02T01:52:29.434Z,6.90
2023-05-02T01:54:59.144Z,6.82
2023-05-02T01:57:26.045Z,6.47
2023-05-02T01:59:56.825Z,6.75
2023-05-02T02:02:27.071Z,6.40
2023-05-02T02:04:55.248Z,7.38
2023-05-02T02:07:21.834Z,7.32
2023-05-02T02:09:48.325Z,8.02
2023-05-02T02:12:23.101Z,7.70
2023-05-02T02:14:55.970Z,7.85
2023-05-02T02:17:27.928Z,8.07
2023-05-02T02:19:56.838Z,8.02
2023-05-02T02:22:26.522Z,8.35
2023-05-02T02:24:54.589Z,8.30
2023-05-02T02:27:21.079Z,9.55
2023-05-02T02:29:47.455Z,10.43
2023-05-02T02:32:13.926Z,10.48
2023-05-02T02:34:40.368Z,10.05
2023-05-02T02:37:26.371Z,10.32
2023-05-02T02:40:03.782Z,10.52
2023-05-02T02:42:51.942Z,11.48
2023-05-02T02:45:36.414Z,12.45
2023-05-02T02:48:18.399Z,12.75
2023-05-02T02:51:05.804Z,12.55
2023-05-02T02:53:58.265Z,12.57
2023-05-02T02:56:39.091Z,15.48
2023-05-02T02:59:12.683Z,14.82
2023-05-02T03:01:43.574Z,16.67
2023-05-02T03:04:12.150Z,16.45
2023-05-02T03:06:39.220Z,18.95
2023-05-02T03:09:05.812Z,18.10
2023-05-02T03:11:32.132Z,19.23
2023-05-02T03:13:58.506Z,18.13
2023-05-02T03:16:39.446Z,17.58
2023-05-02T03:19:07.378Z,18.05
2023-05-02T03:21:34.523Z,18.63
2023-05-02T03:24:02.417Z,18.63
2023-05-02T03:26:28.742Z,19.98
2023-05-02T03:28:56.181Z,18.95
2023-05-02T03:31:24.742Z,18.27
2023-05-02T03:33:53.005Z,17.45
2023-05-02T03:36:19.658Z,16.35
2023-05-02T03:38:46.084Z,18.83
2023-05-02T03:41:12.599Z,20.67
2023-05-02T03:43:38.939Z,20.73
2023-05-02T03:46:07.920Z,22.48
2023-05-02T03:48:34.698Z,22.20
2023-05-02T03:51:02.888Z,21.80
2023-05-02T03:53:31.566Z,23.67
2023-05-02T03:55:58.396Z,23.73
2023-05-02T03:58:25.552Z,23.92
2023-05-02T04:00:55.407Z,23.60
2023-05-02T04:03:22.781Z,22.92
2023-05-02T04:05:49.418Z,24.95
2023-05-02T04:08:15.745Z,23.50
2023-05-02T04:10:42.392Z,23.80
2023-05-02T04:13:08.882Z,22.95
2023-05-02T04:15:35.258Z,22.40
2023-05-02T04:18:01.814Z,22.50
2023-05-02T04:20:29.203Z,21.45
2023-05-02T04:22:55.554Z,21.83
2023-05-02T04:25:21.890Z,20.83
2023-05-02T04:27:48.274Z,20.27
2023-05-02T04:30:14.768Z,19.70
2023-05-02T04:32:41.168Z,19.50
2023-05-02T04:35:07.917Z,19.40
2023-05-02T04:37:34.240Z,19.98
2023-05-02T04:40:00.846Z,20.80
2023-05-02T04:42:27.597Z,20.70
2023-05-02T04:44:53.906Z,20.65
2023-05-02T04:47:20.456Z,20.08
2023-05-02T04:49:47.168Z,21.13
2023-05-02T04:52:13.653Z,21.38
2023-05-02T04:54:40.005Z,19.33
2023-05-02T04:57:07.847Z,21.58
2023-05-02T04:59:34.882Z,21.80
2023-05-02T05:02:01.454Z,22.77
2023-05-02T05:04:27.886Z,20.23
2023-05-02T05:06:54.755Z,20.45
2023-05-02T05:09:21.240Z,21.90
2023-05-02T05:11:47.688Z,20.98
2023-05-02T05:14:14.123Z,22.08
2023-05-02T05:16:40.444Z,23.75
2023-05-02T05:19:06.946Z,23.58
2023-05-02T05:21:33.492Z,23.77
2023-05-02T05:23:59.954Z,25.25
2023-05-02T05:26:26.753Z,25.45
2023-05-02T05:28:53.143Z,24.63
2023-05-02T05:31:19.507Z,25.55
2023-05-02T05:33:45.953Z,24.40
2023-05-02T05:36:17.119Z,26.77
2023-05-02T05:38:43.397Z,26.02
2023-05-02T05:41:11.046Z,25.45
2023-05-02T05:43:38.445Z,24.95
2023-05-02T05:46:05.418Z,26.83
2023-05-02T05:48:31.859Z,25.48
2023-05-02T05:50:58.232Z,25.95
2023-05-02T05:53:24.538Z,23.85
2023-05-02T05:55:50.987Z,21.60
2023-05-02T05:58:17.422Z,21.90
2023-05-02T06:00:43.744Z,21.27
2023-05-02T06:03:10.343Z,23.52
2023-05-02T06:05:37.049Z,24.45
2023-05-02T06:08:03.574Z,23.85
2023-05-02T06:10:31.543Z,24.35
2023-05-02T06:12:58.166Z,25.23
2023-05-02T06:15:24.575Z,24.67
2023-05-02T06:17:52.066Z,24.10
2023-05-02T06:20:18.909Z,22.77
2023-05-02T06:22:45.601Z,24.27
2023-05-02T06:25:11.992Z,23.52
2023-05-02T06:27:38.306Z,22.95
2023-05-02T06:30:06.457Z,22.45
2023-05-02T06:32:32.889Z,24.83
2023-05-02T06:34:59.377Z,21.73
2023-05-02T06:37:25.902Z,23.50
2023-05-02T06:39:52.238Z,22.15
2023-05-02T06:42:18.610Z,23.85
2023-05-02T06:44:44.919Z,21.10
2023-05-02T06:47:12.303Z,23.00
2023-05-02T06:49:38.742Z,23.83
2023-05-02T06:52:05.078Z,21.92
2023-05-02T06:54:31.397Z,22.10
2023-05-02T06:56:57.799Z,21.80
2023-05-02T06:59:24.218Z,20.60
2023-05-02T07:01:50.946Z,19.58
2023-05-02T07:07:07.610Z,21.90
2023-05-02T07:09:33.937Z,18.75
2023-05-02T07:12:03.573Z,17.33
2023-05-02T07:14:30.968Z,16.83
2023-05-02T07:16:57.507Z,17.08
2023-05-02T07:19:23.868Z,15.15
2023-05-02T07:21:50.278Z,13.98
2023-05-02T07:24:16.605Z,10.48
2023-05-02T07:26:43.026Z,12.02
2023-05-02T07:29:09.718Z,9.90
2023-05-02T07:31:36.026Z,11.55
2023-05-02T07:34:02.494Z,11.10
2023-05-02T07:36:28.809Z,10.43
2023-05-02T07:38:55.116Z,10.43
2023-05-02T07:41:21.554Z,10.40
2023-05-02T07:43:47.982Z,11.30
2023-05-02T07:46:14.441Z,11.10
2023-05-02T07:48:42.791Z,10.27
2023-05-02T07:51:10.745Z,9.20
2023-05-02T07:53:37.139Z,9.02
2023-05-02T07:56:05.169Z,9.40
2023-05-02T07:58:31.567Z,9.60
2023-05-02T08:00:57.989Z,8.38
2023-05-02T08:03:24.454Z,9.27
2023-05-02T08:05:51.229Z,10.65
2023-05-02T08:08:17.639Z,9.77
2023-05-02T08:10:44.537Z,10.20
2023-05-02T08:13:11.400Z,11.07
2023-05-02T08:18:05.089Z,11.00
2023-05-02T08:20:31.451Z,11.43
2023-05-02T08:22:59.958Z,11.88
2023-05-02T08:25:26.632Z,11.23
2023-05-02T08:27:53.374Z,12.43
2023-05-02T08:30:19.702Z,10.63
2023-05-02T08:32:47.421Z,9.77
2023-05-02T08:35:13.761Z,10.65
2023-05-02T08:37:40.207Z,9.98
2023-05-02T08:40:11.825Z,9.27
2023-05-02T08:42:42.002Z,8.35
2023-05-02T08:45:09.156Z,9.52
2023-05-02T08:47:36.715Z,8.90
2023-05-02T08:50:05.701Z,9.55
2023-05-02T08:52:33.337Z,8.88
2023-05-02T08:55:02.315Z,9.20
2023-05-02T08:57:30.005Z,8.73
2023-05-02T08:59:56.884Z,8.77
2023-05-02T09:02:51.675Z,8.25
2023-05-02T09:05:23.388Z,9.60
2023-05-02T09:07:51.679Z,8.60
2023-05-02T09:10:18.318Z,7.65
2023-05-02T09:12:44.655Z,7.13
2023-05-02T09:15:12.374Z,7.90
2023-05-02T09:17:43.346Z,8.25
2023-05-02T09:20:14.935Z,7.05
2023-05-02T09:22:53.443Z,7.72
2023-05-02T09:25:20.638Z,7.03
2023-05-02T09:27:52.325Z,7.22
2023-05-02T09:30:26.234Z,6.97
2023-05-02T09:32:55.639Z,6.10
2023-05-02T09:35:25.868Z,5.60
2023-05-02T09:37:54.283Z,5.93
2023-05-02T09:40:21.374Z,6.60
2023-05-02T09:42:47.829Z,6.15
2023-05-02T09:45:26.739Z,5.57
2023-05-02T09:47:54.170Z,6.72
2023-05-02T09:50:37.639Z,6.22
2023-05-02T09:53:09.590Z,5.40
2023-05-02T09:55:36.309Z,6.03
2023-05-02T09:58:03.367Z,5.80
2023-05-02T10:00:40.691Z,5.90
2023-05-02T10:03:08.585Z,5.82
2023-05-02T10:05:39.515Z,5.65
2023-05-02T10:08:07.421Z,5.28
2023-05-02T10:10:37.279Z,5.18
2023-05-02T10:13:05.346Z,5.03
2023-05-02T10:15:33.836Z,5.32
2023-05-02T10:18:03.690Z,5.43
2023-05-02T10:20:37.373Z,4.35
2023-05-02T10:23:05.942Z,4.00
2023-05-02T10:25:33.306Z,4.07
2023-05-02T10:28:00.196Z,3.95
2023-05-02T10:30:28.012Z,4.05
2023-05-02T10:32:54.684Z,4.15
2023-05-02T10:35:21.545Z,4.28
2023-05-02T10:37:49.766Z,4.45
2023-05-02T10:40:16.360Z,4.30
2023-05-02T10:42:47.011Z,3.78
2023-05-02T10:45:30.732Z,3.92
2023-05-02T10:48:14.341Z,3.63
2023-05-02T10:50:52.210Z,3.55
2023-05-02T10:53:28.630Z,3.20
2023-05-02T10:56:28.453Z,3.10
2023-05-02T10:59:28.586Z,3.40
2023-05-02T11:01:55.025Z,3.25
2023-05-02T11:04:21.417Z,3.58
2023-05-02T11:06:56.787Z,3.13
2023-05-02T11:09:23.050Z,3.05
2023-05-02T11:11:52.410Z,2.63
2023-05-02T11:14:30.959Z,3.00
2023-05-02T11:16:57.504Z,2.53
2023-05-02T11:19:29.214Z,2.38
2023-05-02T11:22:20.656Z,2.75
2023-05-02T11:24:48.688Z,3.00
2023-05-02T11:27:30.381Z,2.97
2023-05-02T11:29:56.830Z,3.17
2023-05-02T11:32:23.820Z,3.42
2023-05-02T11:34:52.579Z,3.33
2023-05-02T11:37:21.040Z,3.08
2023-05-02T11:39:47.410Z,3.47
2023-05-02T11:42:30.245Z,3.58
2023-05-02T11:45:01.265Z,3.50
2023-05-02T11:47:29.531Z,3.95
2023-05-02T11:49:56.747Z,3.67
2023-05-02T11:52:23.777Z,3.53
2023-05-02T11:54:53.848Z,3.30
2023-05-02T11:57:20.257Z,4.00
2023-05-02T11:59:53.769Z,4.07
2023-05-02T12:02:21.236Z,4.10
2023-05-02T12:04:47.699Z,4.25
2023-05-02T12:07:14.233Z,4.35
2023-05-02T12:09:53.763Z,4.07
2023-05-02T12:12:21.346Z,4.55
2023-05-02T12:14:48.208Z,4.43
2023-05-02T12:17:15.289Z,3.97
2023-05-02T12:19:41.890Z,4.57
2023-05-02T12:22:09.680Z,4.65
2023-05-02T12:24:36.552Z,4.93
2023-05-02T12:27:16.705Z,5.28
2023-05-02T12:29:45.090Z,3.75
2023-05-02T12:32:12.345Z,3.13
2023-05-02T12:34:39.447Z,2.65
2023-05-02T12:37:07.717Z,3.47
2023-05-02T12:39:41.029Z,2.65
2023-05-02T12:42:14.651Z,2.97
2023-05-02T12:44:45.568Z,3.10
2023-05-02T12:47:16.476Z,3.10
2023-05-02T12:49:52.498Z,3.35
2023-05-02T12:52:42.314Z,3.10
2023-05-02T12:55:17.791Z,3.40
2023-05-02T12:57:44.287Z,3.33
2023-05-02T13:00:11.680Z,3.33
2023-05-02T13:02:38.058Z,3.03
2023-05-02T13:05:17.796Z,3.17
2023-05-02T13:07:44.520Z,3.58
2023-05-02T13:10:12.191Z,3.10
2023-05-02T13:12:38.703Z,3.30
2023-05-02T13:15:06.984Z,3.20
2023-05-02T13:17:34.242Z,2.92
2023-05-02T13:20:02.435Z,3.10
2023-05-02T13:22:29.349Z,3.28
2023-05-02T13:24:57.979Z,3.13
2023-05-02T13:27:25.206Z,3.03
2023-05-02T13:29:52.104Z,2.75
2023-05-02T13:32:18.659Z,2.58
2023-05-02T13:34:45.352Z,2.45
2023-05-02T13:37:11.711Z,2.70
2023-05-02T13:39:38.006Z,2.60
2023-05-02T13:42:05.953Z,2.17
2023-05-02T13:44:32.713Z,2.72
2023-05-02T13:46:59.172Z,2.50
2023-05-02T13:49:25.573Z,3.00
2023-05-02T13:51:51.959Z,3.20
2023-05-02T13:54:18.747Z,3.17
2023-05-02T13:56:45.138Z,3.47
2023-05-02T13:59:11.503Z,3.83
2023-05-02T14:01:40.345Z,3.60
2023-05-02T14:04:08.651Z,3.70
2023-05-02T14:06:35.972Z,3.58
2023-05-02T14:09:02.886Z,3.70
2023-05-02T14:11:29.379Z,3.63
2023-05-02T14:13:58.094Z,3.40
2023-05-02T14:16:24.518Z,3.92
2023-05-02T14:18:51.087Z,3.88
2023-05-02T14:21:17.533Z,3.80
2023-05-02T14:23:43.859Z,4.28
2023-05-02T14:26:10.246Z,4.18
2023-05-02T14:28:38.309Z,4.40
2023-05-02T14:31:05.738Z,4.10
2023-05-02T14:33:32.102Z,3.78
2023-05-02T14:35:58.435Z,3.90
2023-05-02T14:38:24.736Z,4.50
2023-05-02T14:40:51.237Z,3.92
2023-05-02T14:43:17.895Z,4.00
2023-05-02T14:45:44.235Z,3.78
2023-05-02T14:48:11.676Z,3.75
2023-05-02T14:50:39.466Z,3.90
2023-05-02T14:53:06.327Z,3.78
2023-05-02T14:55:39.679Z,3.20
2023-05-02T14:58:08.771Z,3.15
2023-05-02T15:00:37.593Z,3.53
2023-05-02T15:03:07.623Z,3.58
2023-05-02T15:05:36.560Z,3.40
2023-05-02T15:08:03.085Z,3.45
2023-05-02T15:10:29.511Z,3.70
2023-05-02T15:12:56.216Z,3.75
2023-05-02T15:15:24.944Z,4.05
2023-05-02T15:17:52.820Z,4.32
2023-05-02T15:20:19.940Z,3.92
2023-05-02T15:22:46.370Z,3.97
2023-05-02T15:25:12.690Z,4.82
2023-05-02T15:27:39.041Z,4.57
2023-05-02T15:30:07.250Z,4.55
2023-05-02T15:32:33.591Z,4.38
2023-05-02T15:34:59.961Z,4.47
2023-05-02T15:37:26.446Z,4.50
2023-05-02T15:39:52.806Z,3.90
2023-05-02T15:42:19.137Z,3.83
2023-05-02T15:44:45.472Z,3.72
2023-05-02T15:47:11.883Z,3.67
2023-05-02T15:49:38.772Z,3.60
2023-05-02T15:52:05.243Z,3.30
2023-05-02T15:54:32.088Z,3.10
2023-05-02T15:56:58.518Z,2.63
2023-05-02T15:59:24.936Z,2.50
2023-05-02T16:01:51.368Z,2.55
2023-05-02T16:04:17.812Z,2.40
2023-05-02T16:06:44.525Z,2.80
2023-05-02T16:09:12.677Z,2.92
2023-05-02T16:11:39.116Z,2.60
2023-05-02T16:14:05.601Z,2.78
2023-05-02T16:16:32.264Z,2.47
2023-05-02T16:18:58.829Z,2.50
2023-05-02T16:21:25.603Z,2.70
2023-05-02T16:23:52.267Z,2.70
2023-05-02T16:26:20.198Z,2.53
2023-05-02T16:28:46.557Z,2.38
2023-05-02T16:31:14.756Z,2.55
2023-05-02T16:33:42.708Z,2.50
2023-05-02T16:36:09.706Z,2.95
2023-05-02T16:38:36.546Z,2.35
2023-05-02T16:41:05.017Z,2.67
2023-05-02T16:43:31.455Z,2.90
2023-05-02T16:46:05.884Z,3.17
2023-05-02T16:48:33.285Z,2.70
2023-05-02T16:51:03.195Z,2.88
2023-05-02T16:53:30.870Z,3.20
2023-05-02T16:55:59.247Z,3.33
2023-05-02T16:58:27.502Z,2.92
2023-05-02T17:00:53.943Z,3.50
2023-05-02T17:03:20.394Z,3.35
2023-05-02T17:05:46.844Z,3.00
2023-05-02T17:08:13.802Z,2.97
2023-05-02T17:10:40.509Z,3.58
2023-05-02T17:13:06.986Z,3.28
2023-05-02T17:15:38.349Z,3.30
2023-05-02T17:18:05.103Z,3.17
2023-05-02T17:20:32.155Z,3.28
2023-05-02T17:23:00.256Z,3.28
2023-05-02T17:25:26.749Z,2.85
2023-05-02T17:27:53.267Z,2.95
2023-05-02T17:30:19.672Z,3.28
2023-05-02T17:32:46.395Z,3.15
2023-05-02T17:35:14.026Z,2.97
2023-05-02T17:37:40.550Z,3.08
2023-05-02T17:40:07.764Z,2.90
2023-05-02T17:42:34.086Z,3.30
2023-05-02T17:45:00.539Z,3.70
2023-05-02T17:47:26.924Z,3.17
2023-05-02T17:49:53.716Z,3.15
2023-05-02T17:52:20.154Z,3.40
2023-05-02T17:54:46.561Z,3.10
2023-05-02T17:57:14.480Z,3.20
2023-05-02T17:59:41.491Z,3.15
2023-05-02T18:02:10.111Z,3.30
2023-05-02T18:04:37.193Z,3.50
2023-05-02T18:07:05.720Z,3.30
2023-05-02T18:09:32.502Z,3.38
2023-05-02T18:12:00.438Z,2.95
2023-05-02T18:14:26.795Z,3.30
2023-05-02T18:16:53.087Z,3.28
2023-05-02T18:19:19.409Z,3.03
2023-05-02T18:21:46.097Z,3.47
2023-05-02T18:24:12.697Z,3.55
2023-05-02T18:26:39.090Z,3.10
2023-05-02T18:29:05.555Z,3.35
2023-05-02T18:31:32.201Z,3.47
2023-05-02T18:33:58.610Z,3.33
2023-05-02T18:36:28.265Z,3.17
2023-05-02T18:38:55.637Z,3.05
2023-05-02T18:41:22.330Z,3.38
2023-05-02T18:43:48.990Z,3.40
2023-05-02T18:46:15.370Z,4.43
2023-05-02T18:48:41.693Z,3.10
2023-05-02T18:51:08.251Z,3.22
2023-05-02T18:53:34.839Z,3.15
2023-05-02T18:56:01.207Z,3.53
2023-05-02T18:58:27.724Z,3.53
2023-05-02T19:00:54.078Z,3.15
2023-05-02T19:03:20.566Z,3.33
2023-05-02T19:05:47.081Z,3.22
2023-05-02T19:08:13.494Z,3.08
2023-05-02T19:10:39.809Z,2.80
2023-05-02T19:13:06.206Z,2.95
2023-05-02T19:15:34.125Z,2.90
2023-05-02T19:18:00.772Z,2.83
2023-05-02T19:20:27.475Z,3.00
2023-05-02T19:23:02.954Z,3.15
2023-05-02T19:25:40.730Z,3.20
2023-05-02T19:28:07.429Z,3.22
2023-05-02T19:30:33.764Z,3.20
2023-05-02T19:33:00.376Z,3.20
2023-05-02T19:35:27.158Z,3.30
2023-05-02T19:37:53.651Z,3.53
2023-05-02T19:40:20.222Z,3.70
2023-05-02T19:42:46.533Z,3.13
2023-05-02T19:45:13.691Z,3.10
2023-05-02T19:47:43.755Z,2.90
2023-05-02T19:50:10.589Z,2.90
2023-05-02T19:52:38.953Z,2.85
2023-05-02T19:55:06.903Z,2.22
2023-05-02T19:57:33.262Z,3.40
2023-05-02T19:59:59.947Z,3.05
2023-05-02T20:02:26.889Z,3.35
2023-05-02T20:04:53.349Z,3.00
2023-05-02T20:07:19.736Z,2.70
2023-05-02T20:09:46.130Z,2.50
2023-05-02T20:12:12.413Z,2.50
2023-05-02T20:14:40.715Z,2.70
2023-05-02T20:17:07.334Z,2.58
2023-05-02T20:19:33.758Z,2.55
2023-05-02T20:22:00.268Z,2.50
2023-05-02T20:24:26.609Z,2.95
2023-05-02T20:26:52.959Z,2.50
2023-05-02T20:29:19.491Z,2.70
2023-05-02T20:31:45.913Z,2.55
2023-05-02T20:34:12.307Z,2.17
2023-05-02T20:36:38.686Z,2.40
2023-05-02T20:39:07.358Z,2.90
2023-05-02T20:41:34.829Z,2.60
2023-05-02T20:44:02.577Z,2.17
2023-05-02T20:46:29.353Z,2.50
2023-05-02T20:48:55.726Z,2.42
2023-05-02T20:51:22.122Z,2.60
2023-05-02T20:53:48.870Z,2.40
2023-05-02T20:56:15.323Z,2.55
2023-05-02T20:58:41.637Z,2.20
2023-05-02T21:01:08.106Z,2.50
2023-05-02T21:03:36.571Z,2.58
2023-05-02T21:06:03.355Z,2.28
2023-05-02T21:08:29.747Z,2.30
2023-05-02T21:10:56.043Z,2.60
2023-05-02T21:13:22.360Z,2.45
2023-05-02T21:15:48.804Z,2.90
2023-05-02T21:18:15.348Z,2.70
2023-05-02T21:20:41.694Z,2.50
2023-05-02T21:23:11.044Z,2.67
2023-05-02T21:25:38.116Z,2.63
2023-05-02T21:28:04.687Z,2.85
2023-05-02T21:30:31.197Z,2.88
2023-05-02T21:32:57.621Z,2.70
2023-05-02T21:35:23.981Z,2.72
2023-05-02T21:37:50.476Z,3.20
2023-05-02T21:40:16.761Z,3.10
2023-05-02T21:42:43.284Z,3.17
2023-05-02T21:45:09.858Z,3.00
2023-05-02T21:47:36.198Z,3.00
2023-05-02T21:50:04.173Z,2.88
2023-05-02T21:52:31.552Z,3.30
2023-05-02T21:54:57.942Z,3.00
2023-05-02T21:57:24.296Z,3.03
2023-05-02T21:59:50.749Z,3.20
2023-05-02T22:02:17.100Z,2.95
2023-05-02T22:04:46.954Z,3.08
2023-05-02T22:07:13.683Z,3.47
2023-05-02T22:09:40.101Z,2.90
2023-05-02T22:12:06.497Z,3.58
2023-05-02T22:14:41.644Z,3.15
2023-05-02T22:17:11.553Z,3.50
2023-05-02T22:19:38.816Z,3.50
2023-05-02T22:22:05.370Z,3.40
2023-05-02T22:24:31.750Z,3.30
2023-05-02T22:26:58.167Z,3.22
2023-05-02T22:29:24.562Z,3.08
2023-05-02T22:31:51.967Z,3.88
2023-05-02T22:34:18.812Z,3.60
2023-05-02T22:36:45.218Z,3.72
2023-05-02T22:39:12.707Z,3.22
2023-05-02T22:41:39.034Z,3.28
2023-05-02T22:44:05.547Z,3.30
2023-05-02T22:46:31.920Z,3.70
2023-05-02T22:48:58.667Z,3.30
2023-05-02T22:51:28.454Z,3.50
2023-05-02T22:53:55.359Z,3.42
2023-05-02T22:56:22.180Z,3.60
2023-05-02T22:58:49.813Z,3.70
2023-05-02T23:01:16.349Z,3.78
2023-05-02T23:03:43.033Z,3.22
2023-05-02T23:06:09.680Z,3.90
2023-05-02T23:08:36.041Z,3.50
2023-05-02T23:11:02.736Z,3.83
2023-05-02T23:13:29.092Z,3.70
2023-05-02T23:15:55.679Z,3.88
2023-05-02T23:18:22.924Z,3.65
2023-05-02T23:20:49.319Z,3.78
2023-05-02T23:23:15.709Z,3.97
2023-05-02T23:25:42.122Z,3.58
2023-05-02T23:28:08.497Z,3.22
2023-05-02T23:30:34.910Z,3.63
2023-05-02T23:33:01.509Z,3.85
2023-05-02T23:35:27.909Z,2.85
2023-05-02T23:37:54.296Z,3.67
2023-05-02T23:40:20.804Z,4.22
2023-05-02T23:42:47.512Z,4.18
2023-05-02T23:45:13.889Z,3.97
2023-05-02T23:47:40.400Z,4.10
2023-05-02T23:50:07.646Z,4.20
2023-05-02T23:52:34.016Z,3.75
2023-05-02T23:55:00.402Z,3.80
2023-05-02T23:57:29.447Z,3.50
2023-05-02T23:59:55.895Z,3.65
